createdAt,value
2023-03-21T00:00:48.567Z,2.00
2023-03-21T00:03:18.432Z,2.50
2023-03-21T00:05:51.906Z,2.53
2023-03-21T00:08:24.936Z,2.78
2023-03-21T00:10:58.571Z,2.47
2023-03-21T00:13:28.561Z,2.15
2023-03-21T00:16:06.065Z,2.30
2023-03-21T00:18:48.865Z,2.85
2023-03-21T00:21:40.960Z,2.28
2023-03-21T00:24:12.350Z,2.70
2023-03-21T00:26:42.066Z,2.75
2023-03-21T00:29:11.713Z,3.17
2023-03-21T00:31:41.754Z,2.92
2023-03-21T00:36:40.685Z,2.83
2023-03-21T00:39:14.281Z,2.95
2023-03-21T00:41:43.837Z,3.05
2023-03-21T00:44:16.022Z,2.28
2023-03-21T00:47:00.560Z,2.75
2023-03-21T00:49:38.639Z,2.83
2023-03-21T00:52:18.292Z,2.65
2023-03-21T00:54:56.749Z,2.47
2023-03-21T00:57:38.000Z,2.50
2023-03-21T01:00:10.260Z,2.80
2023-03-21T01:02:43.411Z,2.50
2023-03-21T01:05:34.555Z,2.13
2023-03-21T01:08:08.126Z,2.47
2023-03-21T01:10:46.598Z,2.67
2023-03-21T01:13:17.046Z,2.75
2023-03-21T01:15:47.647Z,2.55
2023-03-21T01:18:18.097Z,2.17
2023-03-21T01:20:48.052Z,2.53
2023-03-21T01:23:18.250Z,2.40
2023-03-21T01:25:50.864Z,2.58
2023-03-21T01:28:20.529Z,2.70
2023-03-21T01:30:50.417Z,2.05
2023-03-21T01:33:20.391Z,2.75
2023-03-21T01:35:57.455Z,2.70
2023-03-21T01:38:33.521Z,2.30
2023-03-21T01:41:17.061Z,2.90
2023-03-21T01:43:48.773Z,2.30
2023-03-21T01:46:23.953Z,2.95
2023-03-21T01:49:26.199Z,2.70
2023-03-21T01:52:12.191Z,2.58
2023-03-21T01:54:46.217Z,3.28
2023-03-21T01:57:20.992Z,2.83
2023-03-21T01:59:54.885Z,2.83
2023-03-21T02:02:58.194Z,3.08
2023-03-21T02:06:01.984Z,3.35
2023-03-21T02:08:39.897Z,3.50
2023-03-21T02:11:14.189Z,3.40
2023-03-21T02:13:50.225Z,3.30
2023-03-21T02:16:28.470Z,3.20
2023-03-21T02:19:01.246Z,3.63
2023-03-21T02:21:56.112Z,3.15
2023-03-21T02:24:37.007Z,2.85
2023-03-21T02:27:18.746Z,3.60
2023-03-21T02:30:04.622Z,3.55
2023-03-21T02:32:43.256Z,3.85
2023-03-21T02:35:23.998Z,3.50
2023-03-21T02:38:00.570Z,3.25
2023-03-21T02:40:35.011Z,3.40
2023-03-21T02:43:14.183Z,3.42
2023-03-21T02:45:54.801Z,3.85
2023-03-21T02:48:31.046Z,3.30
2023-03-21T02:51:03.772Z,3.53
2023-03-21T02:53:37.183Z,3.00
2023-03-21T02:56:10.732Z,3.00
2023-03-21T02:58:45.844Z,3.72
2023-03-21T03:01:15.484Z,2.97
2023-03-21T03:03:49.586Z,3.00
2023-03-21T03:06:21.422Z,3.67
2023-03-21T03:09:05.624Z,3.00
2023-03-21T03:11:37.222Z,3.13
2023-03-21T03:14:38.578Z,3.05
2023-03-21T03:17:12.832Z,3.10
2023-03-21T03:19:50.665Z,3.00
2023-03-21T03:22:23.470Z,2.67
2023-03-21T03:25:01.152Z,3.42
2023-03-21T03:27:37.541Z,3.33
2023-03-21T03:30:08.278Z,2.53
2023-03-21T03:32:44.965Z,3.25
2023-03-21T03:35:15.818Z,3.33
2023-03-21T03:37:46.202Z,2.80
2023-03-21T03:40:21.335Z,3.05
2023-03-21T03:43:02.764Z,3.15
2023-03-21T03:45:38.368Z,3.10
2023-03-21T03:48:10.464Z,3.10
2023-03-21T03:50:44.569Z,2.45
2023-03-21T03:53:22.090Z,2.72
2023-03-21T03:55:57.881Z,2.70
2023-03-21T03:58:39.777Z,2.90
2023-03-21T04:01:14.626Z,2.63
2023-03-21T04:03:50.767Z,2.65
2023-03-21T04:06:22.472Z,3.38
2023-03-21T04:08:53.756Z,2.65
2023-03-21T04:11:26.212Z,2.80
2023-03-21T04:13:56.729Z,2.50
2023-03-21T04:16:26.928Z,3.13
2023-03-21T04:18:56.537Z,3.03
2023-03-21T04:21:27.600Z,3.08
2023-03-21T04:23:57.622Z,2.83
2023-03-21T04:26:33.721Z,2.67
2023-03-21T04:29:26.089Z,2.72
2023-03-21T04:32:19.984Z,2.70
2023-03-21T04:34:58.391Z,3.13
2023-03-21T04:37:28.242Z,3.25
2023-03-21T04:39:58.297Z,3.47
2023-03-21T04:42:30.672Z,3.15
2023-03-21T04:45:00.199Z,2.85
2023-03-21T04:47:29.684Z,2.97
2023-03-21T04:49:59.858Z,3.05
2023-03-21T04:52:29.395Z,3.25
2023-03-21T04:54:59.462Z,3.05
2023-03-21T04:57:31.525Z,3.15
2023-03-21T05:00:01.634Z,3.05
2023-03-21T05:02:31.244Z,2.88
2023-03-21T05:05:02.429Z,3.08
2023-03-21T05:07:32.957Z,2.45
2023-03-21T05:10:02.856Z,2.85
2023-03-21T05:12:35.790Z,2.50
2023-03-21T05:15:05.785Z,2.95
2023-03-21T05:17:35.469Z,3.00
2023-03-21T05:20:05.893Z,3.40
2023-03-21T05:22:40.522Z,2.72
2023-03-21T05:25:13.836Z,3.17
2023-03-21T05:28:11.860Z,2.85
2023-03-21T05:30:41.853Z,3.03
2023-03-21T05:33:11.375Z,2.67
2023-03-21T05:35:41.221Z,3.30
2023-03-21T05:38:13.120Z,2.50
2023-03-21T05:40:54.628Z,2.92
2023-03-21T05:43:26.916Z,3.45
2023-03-21T05:45:56.526Z,2.55
2023-03-21T05:48:26.937Z,3.13
2023-03-21T05:51:17.817Z,3.15
2023-03-21T05:53:48.741Z,2.97
2023-03-21T05:56:19.270Z,3.53
2023-03-21T05:59:01.504Z,2.95
2023-03-21T06:01:31.236Z,3.75
2023-03-21T06:04:10.500Z,2.63
2023-03-21T06:06:41.878Z,3.10
2023-03-21T06:09:11.708Z,2.67
2023-03-21T06:11:47.008Z,3.10
2023-03-21T06:14:30.062Z,2.50
2023-03-21T06:17:17.507Z,2.65
2023-03-21T06:19:55.865Z,2.63
2023-03-21T06:22:30.401Z,2.85
2023-03-21T06:25:00.051Z,3.45
2023-03-21T06:27:30.028Z,3.30
2023-03-21T06:30:02.262Z,2.30
2023-03-21T06:32:37.902Z,3.00
2023-03-21T06:35:12.749Z,3.33
2023-03-21T06:37:43.027Z,2.75
2023-03-21T06:40:14.369Z,3.08
2023-03-21T06:42:43.988Z,3.20
2023-03-21T06:45:16.984Z,3.22
2023-03-21T06:47:46.672Z,3.72
2023-03-21T06:50:27.584Z,2.97
2023-03-21T06:52:57.680Z,2.90
2023-03-21T06:55:29.133Z,4.13
2023-03-21T06:58:02.830Z,3.40
2023-03-21T07:00:35.596Z,3.95
2023-03-21T07:03:05.529Z,3.55
2023-03-21T07:05:35.185Z,4.82
2023-03-21T07:08:04.818Z,3.15
2023-03-21T07:10:36.485Z,3.40
2023-03-21T07:13:09.414Z,3.40
2023-03-21T07:15:52.324Z,2.83
2023-03-21T07:18:22.010Z,3.83
2023-03-21T07:20:52.866Z,3.35
2023-03-21T07:23:23.299Z,2.97
2023-03-21T07:25:53.439Z,3.40
2023-03-21T07:28:23.327Z,3.28
2023-03-21T07:31:00.221Z,2.58
2023-03-21T07:33:30.068Z,2.80
2023-03-21T07:36:02.416Z,3.17
2023-03-21T07:38:33.550Z,2.35
2023-03-21T07:41:03.299Z,3.45
2023-03-21T07:43:37.172Z,2.92
2023-03-21T07:46:14.764Z,2.88
2023-03-21T07:48:44.409Z,3.15
2023-03-21T07:51:13.894Z,3.72
2023-03-21T07:53:48.642Z,3.05
2023-03-21T07:56:18.742Z,2.67
2023-03-21T07:58:48.354Z,3.58
2023-03-21T08:01:22.237Z,3.95
2023-03-21T08:03:53.795Z,3.67
2023-03-21T08:06:23.568Z,3.22
2023-03-21T08:08:53.147Z,3.47
2023-03-21T08:11:23.790Z,3.60
2023-03-21T08:13:54.113Z,3.75
2023-03-21T08:16:26.333Z,3.20
2023-03-21T08:18:55.963Z,3.85
2023-03-21T08:21:25.633Z,3.22
2023-03-21T08:23:55.800Z,3.40
2023-03-21T08:26:26.546Z,3.67
2023-03-21T08:28:56.106Z,3.20
2023-03-21T08:31:28.507Z,2.70
2023-03-21T08:33:58.105Z,3.25
2023-03-21T08:36:27.708Z,3.17
2023-03-21T08:39:04.502Z,3.20
2023-03-21T08:41:39.066Z,3.40
2023-03-21T08:44:09.660Z,3.63
2023-03-21T08:46:41.850Z,2.85
2023-03-21T08:49:12.725Z,3.38
2023-03-21T08:51:45.802Z,2.78
2023-03-21T08:54:20.768Z,2.60
2023-03-21T08:56:50.569Z,2.88
2023-03-21T08:59:20.505Z,3.65
2023-03-21T09:01:52.667Z,3.33
2023-03-21T09:04:22.838Z,3.22
2023-03-21T09:06:52.548Z,3.85
2023-03-21T09:09:22.126Z,3.22
2023-03-21T09:11:52.644Z,3.55
2023-03-21T09:14:28.435Z,3.25
2023-03-21T09:17:00.998Z,3.35
2023-03-21T09:19:32.039Z,3.50
2023-03-21T09:22:01.909Z,3.33
2023-03-21T09:24:31.503Z,3.38
2023-03-21T09:27:02.162Z,3.20
2023-03-21T09:29:32.531Z,2.80
2023-03-21T09:32:05.586Z,3.70
2023-03-21T09:34:37.221Z,3.78
2023-03-21T09:37:10.216Z,3.55
2023-03-21T09:39:40.054Z,3.38
2023-03-21T09:42:34.033Z,2.90
2023-03-21T09:45:08.793Z,3.03
2023-03-21T09:47:45.563Z,3.10
2023-03-21T09:50:17.230Z,3.30
2023-03-21T09:52:49.812Z,2.90
2023-03-21T09:55:21.652Z,3.00
2023-03-21T09:57:53.432Z,3.20
2023-03-21T10:00:25.805Z,3.75
2023-03-21T10:02:59.997Z,2.88
2023-03-21T10:05:32.129Z,4.05
2023-03-21T10:08:05.731Z,2.92
2023-03-21T10:10:37.617Z,3.83
2023-03-21T10:13:08.171Z,3.22
2023-03-21T10:15:38.521Z,3.42
2023-03-21T10:18:16.418Z,3.42
2023-03-21T10:20:46.962Z,3.05
2023-03-21T10:23:17.729Z,2.90
2023-03-21T10:25:48.964Z,3.28
2023-03-21T10:28:20.148Z,2.88
2023-03-21T10:30:51.812Z,3.10
2023-03-21T10:33:26.497Z,3.05
2023-03-21T10:35:58.134Z,3.25
2023-03-21T10:38:28.590Z,3.30
2023-03-21T10:40:58.798Z,2.63
2023-03-21T10:43:37.977Z,2.92
2023-03-21T10:46:11.539Z,2.38
2023-03-21T10:48:47.322Z,2.83
2023-03-21T10:51:20.022Z,2.88
2023-03-21T10:53:53.120Z,3.05
2023-03-21T10:56:26.133Z,2.67
2023-03-21T10:58:58.746Z,2.97
2023-03-21T11:01:33.487Z,2.60
2023-03-21T11:04:09.862Z,2.88
2023-03-21T11:06:40.921Z,2.90
2023-03-21T11:09:13.563Z,2.58
2023-03-21T11:11:44.425Z,2.70
2023-03-21T11:14:26.963Z,2.97
2023-03-21T11:16:56.705Z,2.95
2023-03-21T11:19:32.780Z,2.83
2023-03-21T11:22:02.923Z,2.75
2023-03-21T11:24:33.243Z,2.53
2023-03-21T11:27:02.966Z,2.72
2023-03-21T11:29:33.664Z,2.05
2023-03-21T11:32:04.064Z,1.83
2023-03-21T11:34:43.129Z,1.80
2023-03-21T11:37:20.903Z,1.85
2023-03-21T11:39:50.595Z,1.55
2023-03-21T11:42:30.140Z,1.80
2023-03-21T11:45:08.549Z,2.10
2023-03-21T11:47:38.105Z,1.35
2023-03-21T11:50:17.949Z,2.20
2023-03-21T11:52:51.425Z,1.77
2023-03-21T11:55:28.806Z,1.77
2023-03-21T11:58:13.909Z,1.88
2023-03-21T12:00:46.901Z,1.45
2023-03-21T12:03:47.435Z,1.42
2023-03-21T12:06:27.695Z,1.70
2023-03-21T12:09:07.203Z,1.95
2023-03-21T12:11:40.492Z,1.25
2023-03-21T12:14:15.452Z,1.58
2023-03-21T12:16:56.803Z,1.17
2023-03-21T12:19:43.942Z,1.73
2023-03-21T12:22:20.271Z,2.17
2023-03-21T12:24:53.481Z,1.30
2023-03-21T12:27:27.684Z,2.22
2023-03-21T12:30:06.597Z,1.58
2023-03-21T12:32:43.561Z,1.90
2023-03-21T12:35:19.407Z,2.22
2023-03-21T12:37:57.895Z,1.90
2023-03-21T12:40:35.077Z,2.40
2023-03-21T12:43:25.625Z,2.22
2023-03-21T12:45:57.567Z,2.10
2023-03-21T12:48:30.633Z,1.48
2023-03-21T12:51:01.172Z,1.85
2023-03-21T12:53:39.625Z,1.90
2023-03-21T12:56:12.093Z,1.90
2023-03-21T12:58:48.267Z,1.98
2023-03-21T13:01:19.481Z,1.80
2023-03-21T13:03:51.748Z,2.17
2023-03-21T13:06:22.286Z,1.52
2023-03-21T13:08:58.474Z,2.00
2023-03-21T13:11:30.433Z,1.63
2023-03-21T13:14:02.835Z,1.95
2023-03-21T13:16:35.694Z,1.75
2023-03-21T13:19:14.641Z,2.40
2023-03-21T13:21:49.886Z,1.80
2023-03-21T13:24:27.376Z,2.08
2023-03-21T13:27:04.386Z,1.55
2023-03-21T13:29:35.160Z,1.75
2023-03-21T13:32:12.630Z,1.77
2023-03-21T13:34:43.198Z,1.77
2023-03-21T13:37:16.584Z,2.00
2023-03-21T13:39:49.642Z,2.00
2023-03-21T13:42:23.679Z,1.90
2023-03-21T13:44:56.026Z,1.70
2023-03-21T13:47:30.524Z,1.50
2023-03-21T13:50:15.113Z,2.03
2023-03-21T13:52:44.713Z,1.42
2023-03-21T13:55:34.451Z,2.05
2023-03-21T13:58:24.015Z,1.98
2023-03-21T14:01:08.137Z,1.35
2023-03-21T14:03:39.316Z,2.17
2023-03-21T14:06:09.439Z,1.77
2023-03-21T14:08:39.298Z,1.95
2023-03-21T14:11:15.197Z,1.60
2023-03-21T14:13:51.164Z,1.52
2023-03-21T14:16:22.634Z,1.58
2023-03-21T14:18:55.758Z,1.73
2023-03-21T14:21:26.330Z,1.90
2023-03-21T14:23:59.519Z,1.83
2023-03-21T14:26:32.998Z,1.30
2023-03-21T14:29:05.484Z,1.75
2023-03-21T14:31:37.075Z,1.40
2023-03-21T14:34:07.149Z,1.77
2023-03-21T14:36:45.768Z,1.55
2023-03-21T14:39:19.586Z,1.52
2023-03-21T14:41:53.010Z,1.50
2023-03-21T14:44:25.869Z,1.45
2023-03-21T14:46:56.349Z,1.40
2023-03-21T14:49:28.690Z,1.48
2023-03-21T14:51:59.814Z,1.83
2023-03-21T14:54:30.133Z,1.30
2023-03-21T14:57:03.739Z,1.23
2023-03-21T14:59:35.990Z,2.03
2023-03-21T15:02:08.521Z,1.70
2023-03-21T15:04:38.115Z,1.92
2023-03-21T15:07:08.829Z,1.83
2023-03-21T15:09:38.366Z,1.83
2023-03-21T15:12:14.205Z,1.52
2023-03-21T15:14:43.880Z,1.67
2023-03-21T15:17:13.699Z,2.08
2023-03-21T15:19:44.021Z,1.95
2023-03-21T15:22:18.435Z,1.42
2023-03-21T15:24:49.397Z,1.75
2023-03-21T15:27:22.291Z,1.73
2023-03-21T15:29:54.216Z,1.55
2023-03-21T15:32:25.571Z,1.77
2023-03-21T15:34:56.692Z,1.80
2023-03-21T15:37:28.612Z,1.67
2023-03-21T15:40:09.563Z,1.48
2023-03-21T15:42:43.248Z,1.65
2023-03-21T15:45:18.391Z,1.70
2023-03-21T15:47:54.178Z,1.95
2023-03-21T15:50:32.204Z,1.45
2023-03-21T15:53:02.781Z,1.95
2023-03-21T15:55:36.284Z,1.40
2023-03-21T15:58:13.153Z,2.20
2023-03-21T16:00:44.094Z,2.30
2023-03-21T16:03:19.729Z,1.92
2023-03-21T16:06:04.691Z,2.20
2023-03-21T16:08:36.004Z,2.00
2023-03-21T16:11:09.269Z,2.85
2023-03-21T16:13:41.432Z,3.83
2023-03-21T16:16:12.722Z,2.35
2023-03-21T16:18:42.263Z,2.60
2023-03-21T16:21:13.099Z,2.58
2023-03-21T16:23:42.645Z,2.28
2023-03-21T16:26:14.127Z,2.53
2023-03-21T16:28:46.521Z,2.75
2023-03-21T16:31:17.210Z,2.38
2023-03-21T16:33:47.482Z,2.42
2023-03-21T16:36:18.720Z,2.40
2023-03-21T16:38:49.663Z,2.35
2023-03-21T16:41:19.455Z,1.90
2023-03-21T16:43:52.342Z,2.38
2023-03-21T16:46:23.007Z,2.33
2023-03-21T16:48:53.757Z,2.65
2023-03-21T16:51:26.079Z,3.53
2023-03-21T16:53:56.059Z,3.08
2023-03-21T16:56:27.916Z,2.25
2023-03-21T16:59:00.850Z,2.35
2023-03-21T17:01:30.481Z,2.40
2023-03-21T17:04:00.642Z,2.38
2023-03-21T17:06:31.067Z,2.13
2023-03-21T17:09:01.768Z,2.47
2023-03-21T17:11:36.281Z,1.88
2023-03-21T17:14:08.405Z,2.35
2023-03-21T17:16:40.115Z,2.33
2023-03-21T17:19:13.088Z,2.45
2023-03-21T17:21:42.766Z,2.60
2023-03-21T17:24:12.371Z,2.30
2023-03-21T17:26:42.369Z,2.85
2023-03-21T17:29:16.303Z,2.83
2023-03-21T17:31:48.380Z,2.50
2023-03-21T17:34:18.039Z,2.50
2023-03-21T17:36:49.224Z,2.33
2023-03-21T17:39:21.567Z,2.40
2023-03-21T17:41:52.070Z,2.65
2023-03-21T17:44:24.250Z,2.78
2023-03-21T17:46:53.833Z,3.10
2023-03-21T17:49:23.589Z,3.03
2023-03-21T17:51:53.569Z,3.30
2023-03-21T17:54:23.129Z,2.80
2023-03-21T17:56:52.660Z,3.40
2023-03-21T17:59:25.145Z,3.40
2023-03-21T18:01:54.817Z,3.28
2023-03-21T18:04:24.490Z,3.38
2023-03-21T18:06:54.094Z,3.83
2023-03-21T18:09:23.594Z,4.05
2023-03-21T18:11:53.178Z,3.78
2023-03-21T18:14:28.731Z,3.33
2023-03-21T18:16:59.031Z,3.63
2023-03-21T18:19:28.676Z,3.72
2023-03-21T18:21:58.198Z,3.53
2023-03-21T18:24:27.821Z,4.05
2023-03-21T18:26:57.711Z,4.90
2023-03-21T18:32:20.400Z,4.80
2023-03-21T18:34:49.992Z,3.55
2023-03-21T18:37:20.831Z,3.53
2023-03-21T18:39:51.667Z,3.70
2023-03-21T18:42:23.796Z,3.10
2023-03-21T18:44:56.667Z,3.75
2023-03-21T18:47:26.325Z,3.45
2023-03-21T18:50:14.509Z,3.42
2023-03-21T18:52:44.859Z,3.45
2023-03-21T18:55:16.142Z,3.60
2023-03-21T18:57:45.941Z,3.45
2023-03-21T19:00:21.963Z,3.63
2023-03-21T19:03:03.999Z,3.25
2023-03-21T19:05:41.109Z,3.70
2023-03-21T19:08:11.058Z,2.72
2023-03-21T19:10:41.421Z,3.65
2023-03-21T19:13:11.510Z,3.58
2023-03-21T19:15:43.875Z,3.70
2023-03-21T19:21:03.694Z,3.60
2023-03-21T19:23:56.312Z,4.00
2023-03-21T19:26:23.108Z,3.75
2023-03-21T19:28:52.674Z,3.72
2023-03-21T19:31:25.385Z,3.55
2023-03-21T19:33:55.139Z,3.67
2023-03-21T19:36:26.424Z,4.03
2023-03-21T19:38:56.415Z,3.47
2023-03-21T19:41:26.005Z,4.05
2023-03-21T19:43:56.654Z,4.47
2023-03-21T19:46:28.956Z,4.45
2023-03-21T19:48:59.335Z,5.38
2023-03-21T19:51:30.621Z,4.80
2023-03-21T19:54:00.449Z,4.65
2023-03-21T19:56:31.617Z,5.05
2023-03-21T19:59:02.656Z,4.57
2023-03-21T20:01:35.099Z,5.85
2023-03-21T20:04:05.291Z,4.03
2023-03-21T20:06:34.792Z,4.43
2023-03-21T20:09:47.106Z,4.50
2023-03-21T20:11:57.836Z,5.68
2023-03-21T20:14:27.692Z,4.82
2023-03-21T20:16:59.952Z,3.88
2023-03-21T20:19:29.600Z,4.28
2023-03-21T20:22:02.537Z,4.75
2023-03-21T20:24:32.860Z,4.38
2023-03-21T20:27:02.780Z,5.03
2023-03-21T20:32:24.819Z,4.30
2023-03-21T20:35:05.631Z,5.63
2023-03-21T20:37:46.445Z,4.53
2023-03-21T20:40:17.579Z,5.97
2023-03-21T20:42:48.705Z,6.30
2023-03-21T20:45:19.383Z,6.30
2023-03-21T20:47:51.603Z,6.75
2023-03-21T20:50:22.072Z,5.95
2023-03-21T20:53:05.990Z,6.10
2023-03-21T20:55:36.694Z,7.25
2023-03-21T20:58:30.011Z,9.77
2023-03-21T21:00:59.897Z,8.25
2023-03-21T21:03:38.330Z,6.25
2023-03-21T21:06:12.707Z,5.80
2023-03-21T21:08:42.687Z,6.82
2023-03-21T21:12:04.750Z,6.90
2023-03-21T21:14:02.418Z,8.00
2023-03-21T21:16:32.067Z,6.72
2023-03-21T21:19:04.363Z,7.32
2023-03-21T21:21:33.948Z,6.50
2023-03-21T21:24:03.492Z,6.38
2023-03-21T21:26:33.098Z,6.32
2023-03-21T21:29:02.728Z,5.97
2023-03-21T21:31:35.948Z,6.20
2023-03-21T21:34:08.230Z,6.00
2023-03-21T21:36:37.902Z,5.53
2023-03-21T21:39:08.258Z,5.53
2023-03-21T21:41:37.886Z,5.80
2023-03-21T21:44:07.698Z,5.88
2023-03-21T21:46:38.186Z,6.13
2023-03-21T21:49:10.713Z,6.22
2023-03-21T21:51:41.972Z,5.68
2023-03-21T21:54:18.142Z,5.45
2023-03-21T21:56:49.216Z,6.55
2023-03-21T21:59:22.177Z,6.68
2023-03-21T22:01:52.021Z,6.07
2023-03-21T22:04:27.579Z,6.05
2023-03-21T22:06:57.206Z,6.38
2023-03-21T22:09:27.459Z,5.38
2023-03-21T22:11:56.939Z,5.78
2023-03-21T22:14:26.443Z,5.97
2023-03-21T22:16:55.953Z,5.90
2023-03-21T22:19:28.213Z,6.13
2023-03-21T22:21:58.211Z,6.50
2023-03-21T22:24:27.816Z,5.70
2023-03-21T22:27:02.034Z,5.53
2023-03-21T22:29:31.904Z,6.03
2023-03-21T22:32:01.449Z,5.55
2023-03-21T22:34:33.628Z,6.18
2023-03-21T22:37:03.293Z,5.93
2023-03-21T22:39:32.748Z,6.45
2023-03-21T22:42:04.915Z,6.25
2023-03-21T22:44:37.162Z,5.85
2023-03-21T22:47:07.542Z,6.43
2023-03-21T22:49:39.969Z,5.72
2023-03-21T22:52:09.765Z,5.53
2023-03-21T22:54:39.291Z,5.43
2023-03-21T22:57:09.067Z,5.22
2023-03-21T22:59:38.636Z,5.75
2023-03-21T23:02:09.539Z,5.25
2023-03-21T23:04:41.833Z,5.80
2023-03-21T23:07:11.404Z,5.07
2023-03-21T23:09:40.986Z,5.50
2023-03-21T23:12:10.744Z,5.18
2023-03-21T23:14:40.328Z,5.15
2023-03-21T23:17:10.247Z,5.05
2023-03-21T23:19:42.336Z,5.15
2023-03-21T23:22:11.959Z,5.70
2023-03-21T23:24:41.415Z,5.25
2023-03-21T23:27:10.888Z,4.75
2023-03-21T23:29:40.304Z,4.85
2023-03-21T23:32:09.735Z,5.05
2023-03-21T23:34:39.209Z,5.38
2023-03-21T23:37:11.276Z,5.57
2023-03-21T23:39:41.814Z,5.32
2023-03-21T23:42:11.308Z,5.30
2023-03-21T23:44:41.586Z,5.22
2023-03-21T23:47:10.995Z,5.70
2023-03-21T23:49:40.929Z,5.35
2023-03-21T23:52:13.241Z,5.50
2023-03-21T23:54:42.756Z,4.65
2023-03-21T23:57:12.270Z,5.57
2023-03-21T23:59:41.796Z,4.72
